createdAt,value
2023-04-01T00:02:59.930Z,11.57
2023-04-01T00:06:06.051Z,12.33
2023-04-01T00:09:12.540Z,9.18
2023-04-01T00:12:11.990Z,16.35
2023-04-01T00:19:27.771Z,14.23
2023-04-01T00:22:34.515Z,11.20
2023-04-01T00:25:39.209Z,11.70
2023-04-01T00:28:44.114Z,6.42
2023-04-01T00:31:49.527Z,10.15
2023-04-01T00:34:55.131Z,9.48
2023-04-01T00:38:02.816Z,9.83
2023-04-01T00:41:08.693Z,7.12
2023-04-01T00:44:37.859Z,7.25
2023-04-01T00:47:42.787Z,11.48
2023-04-01T00:50:47.579Z,7.47
2023-04-01T00:53:58.980Z,6.83
2023-04-01T00:57:10.096Z,7.90
2023-04-01T01:00:20.019Z,7.15
2023-04-01T01:03:25.842Z,8.63
2023-04-01T01:07:01.674Z,8.75
2023-04-01T01:10:38.840Z,10.60
2023-04-01T01:14:05.785Z,8.38
2023-04-01T01:17:14.145Z,9.55
2023-04-01T01:20:44.420Z,9.55
2023-04-01T01:27:27.643Z,7.45
2023-04-01T01:30:44.355Z,13.72
2023-04-01T01:34:11.729Z,9.28
2023-04-01T01:37:25.750Z,5.87
2023-04-01T01:40:32.004Z,9.68
2023-04-01T01:43:41.101Z,16.25
2023-04-01T01:46:48.374Z,9.90
2023-04-01T01:49:54.230Z,8.60
2023-04-01T01:53:01.035Z,9.73
2023-04-01T01:56:06.451Z,9.40
2023-04-01T01:59:20.819Z,8.10
2023-04-01T02:02:27.347Z,8.15
2023-04-01T02:05:39.304Z,9.70
2023-04-01T02:08:54.752Z,8.58
2023-04-01T02:12:07.423Z,5.65
2023-04-01T02:15:25.172Z,7.40
2023-04-01T02:18:34.004Z,6.00
2023-04-01T02:21:41.154Z,8.05
2023-04-01T02:24:46.630Z,5.85
2023-04-01T02:27:52.582Z,9.35
2023-04-01T02:30:57.941Z,9.53
2023-04-01T02:34:04.512Z,13.28
2023-04-01T02:37:10.302Z,13.08
2023-04-01T02:40:17.994Z,11.10
2023-04-01T02:43:24.079Z,8.90
2023-04-01T02:46:29.698Z,11.40
2023-04-01T02:49:36.179Z,15.80
2023-04-01T02:52:44.894Z,7.47
2023-04-01T02:55:52.790Z,15.90
2023-04-01T02:58:57.909Z,12.55
2023-04-01T03:02:03.989Z,7.22
2023-04-01T03:05:10.356Z,8.98
2023-04-01T03:08:16.970Z,8.85
2023-04-01T03:11:21.979Z,5.78
2023-04-01T03:14:27.665Z,10.80
2023-04-01T03:17:33.374Z,17.12
2023-04-01T03:20:38.341Z,11.97
2023-04-01T03:23:41.862Z,7.97
2023-04-01T03:26:37.857Z,9.98
2023-04-01T03:29:42.530Z,10.25
2023-04-01T03:32:48.456Z,6.90
2023-04-01T03:35:55.404Z,11.45
2023-04-01T03:39:01.199Z,14.73
2023-04-01T03:42:08.897Z,6.83
2023-04-01T03:45:14.328Z,8.50
2023-04-01T03:48:20.261Z,6.33
2023-04-01T03:51:26.291Z,16.97
2023-04-01T03:54:31.703Z,9.05
2023-04-01T03:57:37.989Z,7.03
2023-04-01T04:00:46.359Z,8.13
2023-04-01T04:03:52.020Z,14.28
2023-04-01T04:06:58.507Z,4.62
2023-04-01T04:10:05.700Z,8.65
2023-04-01T04:13:10.430Z,8.93
2023-04-01T04:16:19.223Z,11.65
2023-04-01T04:19:29.020Z,9.53
2023-04-01T04:22:34.655Z,13.03
2023-04-01T04:25:39.787Z,9.93
2023-04-01T04:28:47.325Z,11.25
2023-04-01T04:31:53.830Z,8.25
2023-04-01T04:35:00.612Z,11.95
2023-04-01T04:38:07.460Z,9.70
2023-04-01T04:41:11.873Z,9.28
2023-04-01T04:44:18.689Z,14.03
2023-04-01T04:47:25.282Z,12.63
2023-04-01T04:50:30.998Z,9.45
2023-04-01T04:53:37.545Z,13.72
2023-04-01T04:56:43.319Z,10.30
2023-04-01T04:59:49.852Z,9.18
2023-04-01T05:02:57.540Z,14.05
2023-04-01T05:06:06.454Z,10.28
2023-04-01T05:09:12.508Z,12.50
2023-04-01T05:12:20.759Z,13.03
2023-04-01T05:15:28.443Z,11.55
2023-04-01T05:18:34.299Z,14.70
2023-04-01T05:21:40.270Z,10.85
2023-04-01T05:24:46.027Z,10.98
2023-04-01T05:27:52.303Z,15.65
2023-04-01T05:30:58.953Z,8.45
2023-04-01T05:34:05.511Z,10.93
2023-04-01T05:37:11.661Z,16.10
2023-04-01T05:40:17.169Z,15.58
2023-04-01T05:43:22.604Z,11.53
2023-04-01T05:46:30.638Z,14.47
2023-04-01T05:49:49.185Z,21.55
2023-04-01T05:52:54.630Z,19.55
2023-04-01T05:55:59.827Z,18.42
2023-04-01T05:59:08.574Z,12.60
2023-04-01T06:02:13.339Z,16.32
2023-04-01T06:05:38.750Z,13.15
2023-04-01T06:08:46.497Z,16.50
2023-04-01T06:12:14.026Z,15.53
2023-04-01T06:15:44.394Z,15.80
2023-04-01T06:19:25.799Z,14.53
2023-04-01T06:23:19.298Z,20.10
2023-04-01T06:26:47.921Z,12.98
2023-04-01T06:30:07.170Z,10.93
2023-04-01T06:33:30.529Z,15.43
2023-04-01T06:36:56.392Z,17.95
2023-04-01T06:40:32.588Z,17.55
2023-04-01T06:44:23.542Z,17.40
2023-04-01T06:48:14.573Z,16.82
2023-04-01T06:51:47.705Z,17.75
2023-04-01T06:55:32.727Z,14.23
2023-04-01T06:59:03.723Z,19.20
2023-04-01T07:02:11.549Z,15.72
2023-04-01T07:05:18.172Z,17.35
2023-04-01T07:08:30.162Z,13.48
2023-04-01T07:11:47.751Z,13.58
2023-04-01T07:14:56.999Z,16.12
2023-04-01T07:18:06.030Z,22.40
2023-04-01T07:21:12.534Z,15.98
2023-04-01T07:24:39.895Z,16.30
2023-04-01T07:27:45.413Z,11.45
2023-04-01T07:31:14.974Z,16.77
2023-04-01T07:37:49.598Z,14.80
2023-04-01T07:41:30.650Z,17.00
2023-04-01T07:45:04.327Z,20.48
2023-04-01T07:48:39.042Z,14.80
2023-04-01T07:52:24.057Z,18.77
2023-04-01T07:55:40.706Z,18.40
2023-04-01T07:58:54.205Z,15.40
2023-04-01T08:02:44.225Z,20.15
2023-04-01T08:06:07.134Z,17.92
2023-04-01T08:09:20.959Z,18.48
2023-04-01T08:12:56.115Z,15.43
2023-04-01T08:16:39.247Z,21.68
2023-04-01T08:20:25.483Z,19.65
2023-04-01T08:23:49.847Z,19.12
2023-04-01T08:27:00.973Z,17.10
2023-04-01T08:30:16.867Z,17.75
2023-04-01T08:33:27.557Z,19.60
2023-04-01T08:36:56.272Z,14.18
2023-04-01T08:40:15.940Z,17.12
2023-04-01T08:43:26.743Z,15.50
2023-04-01T08:46:43.220Z,16.02
2023-04-01T08:50:04.984Z,20.00
2023-04-01T08:53:51.903Z,21.23
2023-04-01T08:57:22.685Z,22.40
2023-04-01T09:01:13.918Z,14.87
2023-04-01T09:04:54.105Z,17.87
2023-04-01T09:08:16.981Z,17.00
2023-04-01T09:11:43.533Z,13.98
2023-04-01T09:15:19.996Z,17.10
2023-04-01T09:18:46.182Z,14.33
2023-04-01T09:22:14.729Z,15.38
2023-04-01T09:25:57.983Z,16.45
2023-04-01T09:29:35.706Z,16.00
2023-04-01T09:33:12.195Z,15.90
2023-04-01T09:36:45.448Z,16.55
2023-04-01T09:39:52.932Z,15.65
2023-04-01T09:43:28.248Z,15.93
2023-04-01T09:46:54.580Z,24.12
2023-04-01T09:50:23.302Z,19.23
2023-04-01T09:53:49.706Z,23.05
2023-04-01T09:57:21.056Z,20.08
2023-04-01T10:01:02.918Z,26.45
2023-04-01T10:04:41.953Z,17.25
2023-04-01T10:08:22.010Z,22.17
2023-04-01T10:11:57.472Z,15.23
2023-04-01T10:15:56.792Z,18.07
2023-04-01T10:19:27.277Z,24.27
2023-04-01T10:22:45.990Z,25.90
2023-04-01T10:26:29.906Z,26.73
2023-04-01T10:29:56.248Z,22.90
2023-04-01T10:33:22.933Z,20.52
2023-04-01T10:37:12.227Z,27.45
2023-04-01T10:40:52.727Z,25.82
2023-04-01T10:44:28.862Z,22.07
2023-04-01T10:47:54.786Z,16.15
2023-04-01T10:51:41.447Z,24.07
2023-04-01T10:55:27.909Z,21.45
2023-04-01T10:58:50.999Z,24.43
2023-04-01T11:02:45.408Z,20.93
2023-04-01T11:06:41.552Z,32.78
2023-04-01T11:10:26.519Z,23.47
2023-04-01T11:14:10.938Z,20.15
2023-04-01T11:17:38.483Z,29.40
2023-04-01T11:20:59.593Z,23.30
2023-04-01T11:24:10.585Z,21.05
2023-04-01T11:27:22.598Z,24.30
2023-04-01T11:30:39.867Z,24.72
2023-04-01T11:33:57.189Z,22.58
2023-04-01T11:37:30.623Z,29.80
2023-04-01T11:40:50.991Z,27.65
2023-04-01T11:44:34.997Z,19.02
2023-04-01T11:48:09.359Z,21.65
2023-04-01T11:51:38.679Z,27.25
2023-04-01T11:55:14.469Z,31.53
2023-04-01T11:58:58.850Z,24.95
2023-04-01T12:02:27.975Z,35.85
2023-04-01T12:05:54.685Z,24.32
2023-04-01T12:09:29.799Z,25.20
2023-04-01T12:13:01.269Z,31.33
2023-04-01T12:16:43.297Z,23.45
2023-04-01T12:20:05.372Z,18.07
2023-04-01T12:23:50.775Z,22.82
2023-04-01T12:27:27.060Z,26.10
2023-04-01T12:31:02.783Z,27.25
2023-04-01T12:34:32.128Z,27.55
2023-04-01T12:37:53.270Z,19.07
2023-04-01T12:41:08.942Z,30.17
2023-04-01T12:44:57.660Z,22.10
2023-04-01T12:51:58.666Z,25.40
2023-04-01T12:55:11.142Z,22.42
2023-04-01T12:58:56.259Z,30.43
2023-04-01T13:02:30.700Z,24.43
2023-04-01T13:06:14.970Z,18.65
2023-04-01T13:09:55.196Z,18.77
2023-04-01T13:13:39.839Z,13.65
2023-04-01T13:16:59.346Z,20.85
2023-04-01T13:20:08.811Z,13.15
2023-04-01T13:23:26.968Z,14.83
2023-04-01T13:26:36.334Z,18.70
2023-04-01T13:29:43.236Z,13.40
2023-04-01T13:33:01.930Z,15.32
2023-04-01T13:36:25.077Z,11.53
2023-04-01T13:39:39.746Z,18.57
2023-04-01T13:42:54.842Z,14.73
2023-04-01T13:46:26.913Z,9.18
2023-04-01T13:50:02.625Z,13.53
2023-04-01T13:53:33.692Z,12.18
2023-04-01T13:57:06.674Z,14.58
2023-04-01T14:01:00.018Z,20.75
2023-04-01T14:04:16.410Z,11.20
2023-04-01T14:07:41.446Z,15.55
2023-04-01T14:11:09.990Z,13.95
2023-04-01T14:14:25.403Z,10.38
2023-04-01T14:17:38.577Z,17.02
2023-04-01T14:21:04.639Z,16.10
2023-04-01T14:24:35.628Z,17.45
2023-04-01T14:27:57.111Z,11.73
2023-04-01T14:31:35.210Z,10.63
2023-04-01T14:35:29.024Z,16.05
2023-04-01T14:38:45.197Z,14.90
2023-04-01T14:42:19.089Z,18.30
2023-04-01T14:45:44.495Z,11.22
2023-04-01T14:49:02.062Z,15.28
2023-04-01T14:51:54.768Z,11.22
2023-04-01T14:55:01.075Z,16.65
2023-04-01T14:58:31.032Z,19.52
2023-04-01T15:01:53.876Z,9.78
2023-04-01T15:05:24.549Z,11.90
2023-04-01T15:08:38.378Z,10.40
2023-04-01T15:12:11.111Z,10.13
2023-04-01T15:15:55.927Z,11.48
2023-04-01T15:19:14.260Z,18.23
2023-04-01T15:22:46.109Z,13.03
2023-04-01T15:26:01.191Z,17.85
2023-04-01T15:29:22.948Z,13.75
2023-04-01T15:33:13.791Z,16.80
2023-04-01T15:36:52.803Z,16.50
2023-04-01T15:39:55.123Z,14.85
2023-04-01T15:43:29.919Z,18.73
2023-04-01T15:46:58.205Z,15.15
2023-04-01T15:50:08.902Z,17.50
2023-04-01T15:53:33.904Z,10.58
2023-04-01T15:57:07.733Z,13.43
2023-04-01T16:00:48.595Z,27.60
2023-04-01T16:04:06.276Z,12.55
2023-04-01T16:07:25.543Z,19.57
2023-04-01T16:10:54.013Z,12.65
2023-04-01T16:14:12.664Z,14.25
2023-04-01T16:17:58.785Z,14.30
2023-04-01T16:21:19.936Z,13.70
2023-04-01T16:24:36.747Z,12.93
2023-04-01T16:28:20.873Z,22.45
2023-04-01T16:31:53.207Z,14.90
2023-04-01T16:35:48.858Z,17.07
2023-04-01T16:39:16.075Z,17.65
2023-04-01T16:42:58.591Z,21.10
2023-04-01T16:46:32.413Z,21.85
2023-04-01T16:49:57.382Z,18.02
2023-04-01T16:53:32.837Z,20.70
2023-04-01T16:56:44.796Z,15.08
2023-04-01T17:00:31.209Z,19.02
2023-04-01T17:03:59.740Z,19.77
2023-04-01T17:07:44.674Z,21.35
2023-04-01T17:11:18.628Z,20.17
2023-04-01T17:14:41.559Z,15.63
2023-04-01T17:18:00.385Z,21.00
2023-04-01T17:21:23.103Z,14.53
2023-04-01T17:25:13.909Z,21.73
2023-04-01T17:28:42.239Z,17.45
2023-04-01T17:32:15.175Z,21.80
2023-04-01T17:35:52.990Z,22.73
2023-04-01T17:39:50.867Z,22.15
2023-04-01T17:43:21.016Z,25.15
2023-04-01T17:46:47.387Z,22.52
2023-04-01T17:50:13.635Z,21.50
2023-04-01T17:53:26.902Z,16.10
2023-04-01T17:56:59.048Z,18.17
2023-04-01T18:00:12.142Z,13.50
2023-04-01T18:03:50.553Z,19.37
2023-04-01T18:07:04.695Z,20.40
2023-04-01T18:10:21.078Z,17.10
2023-04-01T18:13:49.374Z,17.65
2023-04-01T18:17:11.526Z,16.50
2023-04-01T18:20:37.349Z,17.85
2023-04-01T18:24:11.661Z,17.40
2023-04-01T18:27:24.431Z,16.75
2023-04-01T18:30:38.101Z,21.65
2023-04-01T18:34:25.132Z,28.85
2023-04-01T18:37:47.989Z,13.25
2023-04-01T18:40:58.507Z,22.95
2023-04-01T18:44:20.393Z,27.62
2023-04-01T18:47:36.657Z,18.73
2023-04-01T18:51:14.627Z,13.53
2023-04-01T18:54:41.046Z,20.40
2023-04-01T18:58:01.296Z,19.95
2023-04-01T19:08:08.807Z,15.72
2023-04-01T19:11:33.109Z,18.40
2023-04-01T19:15:04.872Z,20.72
2023-04-01T19:18:39.919Z,28.65
2023-04-01T19:21:57.234Z,20.43
2023-04-01T19:25:14.582Z,19.85
2023-04-01T19:29:07.086Z,16.07
2023-04-01T19:32:28.231Z,23.73
2023-04-01T19:35:54.077Z,14.87
2023-04-01T19:39:11.486Z,23.50
2023-04-01T19:42:46.503Z,24.40
2023-04-01T19:46:24.264Z,23.73
2023-04-01T19:49:36.252Z,21.48
2023-04-01T19:52:56.430Z,17.82
2023-04-01T19:56:07.460Z,22.98
2023-04-01T19:59:18.096Z,20.23
2023-04-01T20:02:52.519Z,21.55
2023-04-01T20:06:07.657Z,22.07
2023-04-01T20:09:39.889Z,18.95
2023-04-01T20:13:37.879Z,23.02
2023-04-01T20:17:13.274Z,19.15
2023-04-01T20:20:26.261Z,28.12
2023-04-01T20:23:57.347Z,18.77
2023-04-01T20:27:07.985Z,16.80
2023-04-01T20:30:59.192Z,26.12
2023-04-01T20:34:36.653Z,18.52
2023-04-01T20:38:03.770Z,23.65
2023-04-01T20:41:12.235Z,25.45
2023-04-01T20:44:39.851Z,23.92
2023-04-01T20:48:16.731Z,22.82
2023-04-01T20:51:23.785Z,21.80
2023-04-01T20:55:03.005Z,22.82
2023-04-01T20:58:37.501Z,22.80
2023-04-01T21:02:16.536Z,20.08
2023-04-01T21:05:44.000Z,21.87
2023-04-01T21:09:17.449Z,22.32
2023-04-01T21:12:45.915Z,23.62
2023-04-01T21:16:10.522Z,24.47
2023-04-01T21:19:29.710Z,16.25
2023-04-01T21:22:54.912Z,22.70
2023-04-01T21:26:08.951Z,29.72
2023-04-01T21:30:02.165Z,15.60
2023-04-01T21:33:39.158Z,25.55
2023-04-01T21:37:16.295Z,19.45
2023-04-01T21:40:49.304Z,25.23
2023-04-01T21:44:15.670Z,21.17
2023-04-01T21:48:02.028Z,15.93
2023-04-01T21:51:54.074Z,16.35
2023-04-01T21:55:28.268Z,16.02
2023-04-01T21:59:09.834Z,12.07
2023-04-01T22:02:54.966Z,24.92
2023-04-01T22:06:21.060Z,19.42
2023-04-01T22:09:40.653Z,15.45
2023-04-01T22:13:03.727Z,19.30
2023-04-01T22:16:33.803Z,19.55
2023-04-01T22:19:58.789Z,19.82
2023-04-01T22:23:38.018Z,22.93
2023-04-01T22:26:56.757Z,20.17
2023-04-01T22:30:25.436Z,17.85
2023-04-01T22:34:22.030Z,14.03
2023-04-01T22:38:07.868Z,23.67
2023-04-01T22:41:42.246Z,20.23
2023-04-01T22:45:14.596Z,22.67
2023-04-01T22:48:32.415Z,18.90
2023-04-01T22:51:56.616Z,15.75
2023-04-01T22:55:09.751Z,27.02
2023-04-01T22:58:28.323Z,18.90
2023-04-01T23:01:37.325Z,16.15
2023-04-01T23:04:49.290Z,17.80
2023-04-01T23:08:42.552Z,21.48
2023-04-01T23:12:13.300Z,20.05
2023-04-01T23:15:19.272Z,17.95
2023-04-01T23:18:45.589Z,19.37
2023-04-01T23:22:01.744Z,21.23
2023-04-01T23:25:11.155Z,21.20
2023-04-01T23:28:51.143Z,19.65
2023-04-01T23:32:01.377Z,17.50
2023-04-01T23:35:10.209Z,16.35
2023-04-01T23:38:15.614Z,17.55
2023-04-01T23:41:21.293Z,13.83
2023-04-01T23:44:28.033Z,18.12
2023-04-01T23:47:45.085Z,14.65
2023-04-01T23:50:50.071Z,21.65
2023-04-01T23:53:52.898Z,16.42
2023-04-01T23:57:01.769Z,17.10
